Time;durP1;ratioP1;P1;durP2;ratioP2;P2;SDS_P1;SDS_P2;PMS_P1;PMS_P2;Temp;Humidity;BMP_temperature;BMP_pressure;BME280_temperature;BME280_humidity;BME280_pressure;Samples;Min_cycle;Max_cycle;Signal;HPM_P1;HPM_P2
2023/09/17 00:00:36;;;;;;;1999.90;999.90;;;21.20;99.90;;;;;;5055652;28;20029;-74
2023/09/17 00:03:03;;;;;;;1999.90;999.90;;;21.30;99.90;;;;;;5055646;28;20017;-73
2023/09/17 00:05:29;;;;;;;1999.90;999.90;;;21.30;99.90;;;;;;5051908;28;20109;-77
2023/09/17 00:07:54;;;;;;;1999.90;999.90;;;21.30;99.90;;;;;;5054920;28;20100;-77
2023/09/17 00:10:21;;;;;;;1999.90;999.90;;;21.30;99.90;;;;;;5045403;28;20116;-76
2023/09/17 00:12:46;;;;;;;1999.90;999.90;;;21.20;99.90;;;;;;5055621;28;20028;-73
2023/09/17 00:15:12;;;;;;;1999.90;999.90;;;21.20;99.90;;;;;;5038935;28;20033;-73
2023/09/17 00:17:37;;;;;;;1999.90;999.90;;;21.20;99.90;;;;;;5035095;28;20029;-73
2023/09/17 00:20:07;;;;;;;1999.90;999.90;;;21.20;99.90;;;;;;5050547;28;20036;-77
2023/09/17 00:22:32;;;;;;;1999.90;999.90;;;21.20;99.90;;;;;;5051843;28;20411;-77
2023/09/17 00:24:58;;;;;;;1999.90;999.90;;;21.20;99.90;;;;;;5045541;28;20028;-77
2023/09/17 00:27:23;;;;;;;1999.90;999.90;;;21.30;99.90;;;;;;5054780;28;20130;-73
2023/09/17 00:29:49;;;;;;;1999.90;999.90;;;21.30;99.90;;;;;;5055643;28;20032;-77
2023/09/17 00:32:15;;;;;;;1999.90;999.90;;;21.30;99.90;;;;;;5055187;28;20088;-77
2023/09/17 00:34:40;;;;;;;1999.90;999.90;;;21.40;99.90;;;;;;5055186;28;20388;-77
2023/09/17 00:37:07;;;;;;;1999.90;999.90;;;21.40;99.90;;;;;;5055119;28;20025;-77
2023/09/17 00:39:33;;;;;;;1999.90;999.90;;;21.50;99.90;;;;;;5055265;28;20037;-72
2023/09/17 00:41:59;;;;;;;1999.90;999.90;;;21.50;99.90;;;;;;5055254;28;20027;-72
2023/09/17 00:44:24;;;;;;;1999.90;999.90;;;21.40;99.90;;;;;;5054992;28;20033;-76
2023/09/17 00:46:50;;;;;;;1999.90;999.90;;;21.30;99.90;;;;;;5055024;28;20132;-77
2023/09/17 00:49:16;;;;;;;1999.90;999.90;;;21.20;99.90;;;;;;5055046;28;20087;-76
2023/09/17 00:51:43;;;;;;;1999.90;999.90;;;21.10;99.90;;;;;;5055102;28;20480;-73
2023/09/17 00:54:10;;;;;;;1999.90;999.90;;;21.10;99.90;;;;;;5054978;28;20029;-76
2023/09/17 00:56:37;;;;;;;1999.90;999.90;;;21.10;99.90;;;;;;5052720;28;20025;-76
2023/09/17 00:59:05;;;;;;;1999.90;999.90;;;21.10;99.90;;;;;;5054940;28;20072;-76
2023/09/17 01:01:31;;;;;;;1999.90;999.90;;;21.00;99.90;;;;;;5054881;28;20120;-77
2023/09/17 01:03:58;;;;;;;1999.90;999.90;;;21.00;99.90;;;;;;5053053;28;20079;-72
2023/09/17 01:06:24;;;;;;;1999.90;999.90;;;20.90;99.90;;;;;;5054579;28;20495;-72
2023/09/17 01:08:50;;;;;;;1999.90;999.90;;;20.80;99.90;;;;;;5049509;28;20036;-73
2023/09/17 01:11:18;;;;;;;1999.90;999.90;;;21.00;99.90;;;;;;5054410;28;20104;-73
2023/09/17 01:13:49;;;;;;;1999.90;999.90;;;21.00;99.90;;;;;;5053199;28;20514;-77
2023/09/17 01:16:16;;;;;;;1999.90;999.90;;;21.10;99.90;;;;;;5054647;28;20021;-72
2023/09/17 01:18:42;;;;;;;1999.90;999.90;;;21.00;99.90;;;;;;5054466;28;20361;-72
2023/09/17 01:21:13;;;;;;;1999.90;999.90;;;20.70;99.90;;;;;;5054468;28;20024;-78
2023/09/17 01:23:50;;;;;;;1999.90;999.90;;;20.50;99.90;;;;;;5044743;28;20024;-78
2023/09/17 01:26:24;;;;;;;1999.90;999.90;;;20.30;99.90;;;;;;5050750;28;20029;-78
2023/09/17 01:28:52;;;;;;;1999.90;999.90;;;20.30;99.90;;;;;;5054130;28;20028;-77
2023/09/17 01:31:18;;;;;;;1999.90;999.90;;;20.20;99.90;;;;;;5054156;28;20028;-70
2023/09/17 01:33:43;;;;;;;1999.90;999.90;;;20.10;99.90;;;;;;5036054;28;20026;-71
2023/09/17 01:36:16;;;;;;;1999.90;999.90;;;20.10;99.90;;;;;;5034328;28;20029;-76
2023/09/17 01:38:48;;;;;;;1999.90;999.90;;;20.10;99.90;;;;;;5033291;28;20381;-77
2023/09/17 01:41:15;;;;;;;1999.90;999.90;;;20.10;99.90;;;;;;5033792;28;20053;-77
2023/09/17 01:43:44;;;;;;;1999.90;999.90;;;20.10;99.90;;;;;;5034069;28;20512;-71
2023/09/17 01:46:10;;;;;;;1999.90;999.90;;;20.10;99.90;;;;;;5033953;28;20038;-72
2023/09/17 01:48:37;;;;;;;1999.90;999.90;;;20.20;99.90;;;;;;5033681;28;20029;-77
2023/09/17 01:51:03;;;;;;;1999.90;999.90;;;20.10;99.90;;;;;;5034083;28;20036;-77
2023/09/17 01:53:29;;;;;;;1999.90;999.90;;;20.00;99.90;;;;;;5033796;28;20022;-77
2023/09/17 01:55:56;;;;;;;1999.90;999.90;;;20.00;99.90;;;;;;5033955;28;20546;-71
2023/09/17 01:58:22;;;;;;;1999.90;999.90;;;20.00;99.90;;;;;;5033553;28;20619;-71
2023/09/17 02:00:49;;;;;;;1999.90;999.90;;;20.00;99.90;;;;;;5048647;28;20028;-77
2023/09/17 02:03:15;;;;;;;1999.90;999.90;;;20.00;99.90;;;;;;5053487;28;20052;-77
2023/09/17 02:05:40;;;;;;;1999.90;999.90;;;20.10;99.90;;;;;;5053389;28;20544;-77
2023/09/17 02:08:06;;;;;;;1999.90;999.90;;;20.10;99.90;;;;;;5051424;28;20056;-77
2023/09/17 02:10:32;;;;;;;1999.90;999.90;;;20.10;99.90;;;;;;5043106;28;20500;-72
2023/09/17 02:12:57;;;;;;;1999.90;999.90;;;20.10;99.90;;;;;;5053374;28;20028;-72
2023/09/17 02:15:23;;;;;;;1999.90;999.90;;;20.10;99.90;;;;;;5053544;28;20025;-77
2023/09/17 02:17:52;;;;;;;1999.90;999.90;;;20.10;99.90;;;;;;5051837;28;20029;-77
2023/09/17 02:20:17;;;;;;;1999.90;999.90;;;20.10;99.90;;;;;;5053378;28;20032;-77
2023/09/17 02:22:43;;;;;;;1999.90;999.90;;;20.00;99.90;;;;;;5048976;28;20026;-77
2023/09/17 02:25:10;;;;;;;1999.90;999.90;;;20.00;99.90;;;;;;5042049;28;20033;-72
2023/09/17 02:27:35;;;;;;;1999.90;999.90;;;20.00;99.90;;;;;;5049644;28;20036;-77
2023/09/17 02:30:04;;;;;;;1999.90;999.90;;;20.10;99.90;;;;;;5053030;28;20051;-77
2023/09/17 02:32:30;;;;;;;1999.90;999.90;;;20.10;99.90;;;;;;5052724;28;20021;-77
2023/09/17 02:34:56;;;;;;;1999.90;999.90;;;20.10;99.90;;;;;;5052936;28;20033;-72
2023/09/17 02:37:22;;;;;;;1999.90;999.90;;;20.10;99.90;;;;;;5053080;28;20032;-72
2023/09/17 02:39:48;;;;;;;1999.90;999.90;;;20.10;99.90;;;;;;5052957;28;20052;-77
2023/09/17 02:42:14;;;;;;;1999.90;999.90;;;20.20;99.90;;;;;;5052805;28;20399;-72
2023/09/17 02:44:40;;;;;;;1999.90;999.90;;;20.20;99.90;;;;;;5052928;28;20028;-77
2023/09/17 02:47:06;;;;;;;1999.90;999.90;;;20.20;99.90;;;;;;5052633;28;20439;-77
2023/09/17 02:49:32;;;;;;;1999.90;999.90;;;20.10;99.90;;;;;;5052955;28;20032;-77
2023/09/17 02:51:58;;;;;;;1999.90;999.90;;;20.10;99.90;;;;;;5052683;28;20017;-77
2023/09/17 02:54:23;;;;;;;1999.90;999.90;;;20.10;99.90;;;;;;5052757;28;20087;-77
2023/09/17 02:56:49;;;;;;;1999.90;999.90;;;20.20;99.90;;;;;;5052631;28;20092;-76
2023/09/17 02:59:15;;;;;;;1999.90;999.90;;;20.20;99.90;;;;;;5052915;28;20036;-76
2023/09/17 03:01:41;;;;;;;1999.90;999.90;;;20.30;99.90;;;;;;5052840;28;20025;-73
2023/09/17 03:04:07;;;;;;;1999.90;999.90;;;20.40;99.90;;;;;;5051723;28;20052;-72
2023/09/17 03:06:36;;;;;;;1999.90;999.90;;;20.40;99.90;;;;;;5052538;28;20033;-76
2023/09/17 03:09:07;;;;;;;1999.90;999.90;;;20.20;99.90;;;;;;5042284;28;20192;-77
2023/09/17 03:11:33;;;;;;;1999.90;999.90;;;20.20;99.90;;;;;;5043276;28;20445;-77
2023/09/17 03:13:58;;;;;;;1999.90;999.90;;;20.00;99.90;;;;;;5050246;28;20100;-72
2023/09/17 03:16:24;;;;;;;1999.90;999.90;;;19.80;99.90;;;;;;5052730;28;20396;-78
2023/09/17 03:18:50;;;;;;;1999.90;999.90;;;19.90;99.90;;;;;;5033977;28;20028;-72
2023/09/17 03:21:16;;;;;;;1999.90;999.90;;;19.80;99.90;;;;;;5032848;28;20053;-77
2023/09/17 03:23:42;;;;;;;1999.90;999.90;;;19.80;99.90;;;;;;5039967;28;20025;-77
2023/09/17 03:26:09;;;;;;;1999.90;999.90;;;19.80;99.90;;;;;;5052479;28;20107;-78
2023/09/17 03:28:34;;;;;;;1999.90;999.90;;;19.70;99.90;;;;;;5052397;28;20378;-71
2023/09/17 03:31:00;;;;;;;1999.90;999.90;;;19.70;99.90;;;;;;5052309;28;20032;-71
2023/09/17 03:33:27;;;;;;;1999.90;999.90;;;19.80;99.90;;;;;;5052725;28;20047;-71
2023/09/17 03:35:52;;;;;;;1999.90;999.90;;;19.80;99.90;;;;;;5052327;28;20033;-77
2023/09/17 03:38:18;;;;;;;1999.90;999.90;;;19.80;99.90;;;;;;5052657;28;20021;-77
2023/09/17 03:40:44;;;;;;;1999.90;999.90;;;19.80;99.90;;;;;;5051996;28;20029;-71
2023/09/17 03:43:10;;;;;;;1999.90;999.90;;;19.80;99.90;;;;;;5052449;28;20020;-71
2023/09/17 03:45:36;;;;;;;1999.90;999.90;;;19.80;99.90;;;;;;5052058;28;20029;-77
2023/09/17 03:48:01;;;;;;;1999.90;999.90;;;19.70;99.90;;;;;;5051944;28;20017;-77
2023/09/17 03:50:39;;;;;;;1999.90;999.90;;;19.80;99.90;;;;;;5052054;28;20488;-77
2023/09/17 03:53:06;;;;;;;1999.90;999.90;;;19.80;99.90;;;;;;5052077;28;20024;-77
2023/09/17 03:55:36;;;;;;;1999.90;999.90;;;19.80;99.90;;;;;;5052126;28;20108;-72
2023/09/17 03:58:03;;;;;;;1999.90;999.90;;;19.80;99.90;;;;;;5052375;28;20388;-77
2023/09/17 04:00:29;;;;;;;1999.90;999.90;;;19.80;99.90;;;;;;5052018;28;20400;-77
2023/09/17 04:02:55;;;;;;;1999.90;999.90;;;19.70;99.90;;;;;;5053740;28;20025;-77
2023/09/17 04:05:21;;;;;;;1999.90;999.90;;;19.70;99.90;;;;;;5047807;28;20095;-77
2023/09/17 04:07:47;;;;;;;1999.90;999.90;;;19.70;99.90;;;;;;5045206;28;20037;-71
2023/09/17 04:10:15;;;;;;;1999.90;999.90;;;19.70;99.90;;;;;;5047454;28;20029;-77
2023/09/17 04:12:42;;;;;;;1999.90;999.90;;;19.80;99.90;;;;;;5055572;28;20036;-72
2023/09/17 04:15:21;;;;;;;1999.90;999.90;;;19.80;99.90;;;;;;5053346;28;20024;-77
2023/09/17 04:17:50;;;;;;;1999.90;999.90;;;19.80;99.90;;;;;;5055543;28;20028;-77
2023/09/17 04:20:18;;;;;;;1999.90;999.90;;;19.80;99.90;;;;;;5054763;28;20025;-72
2023/09/17 04:22:46;;;;;;;1999.90;999.90;;;19.70;99.90;;;;;;5051649;28;20026;-72
2023/09/17 04:25:13;;;;;;;1999.90;999.90;;;19.70;99.90;;;;;;5046577;28;20052;-77
2023/09/17 04:27:44;;;;;;;1999.90;999.90;;;19.70;99.90;;;;;;5055370;28;20109;-77
2023/09/17 04:30:13;;;;;;;1999.90;999.90;;;19.70;99.90;;;;;;5055336;28;20079;-77
2023/09/17 04:32:40;;;;;;;1999.90;999.90;;;19.60;99.90;;;;;;5035477;28;20516;-72
2023/09/17 04:35:07;;;;;;;1999.90;999.90;;;19.60;99.90;;;;;;5048430;28;20035;-72
2023/09/17 04:37:34;;;;;;;1999.90;999.90;;;19.60;99.90;;;;;;5055220;28;20100;-77
2023/09/17 04:40:00;;;;;;;1999.90;999.90;;;19.60;99.90;;;;;;5053986;28;20116;-73
2023/09/17 04:42:27;;;;;;;1999.90;999.90;;;19.60;99.90;;;;;;5055111;28;20029;-77
2023/09/17 04:44:52;;;;;;;1999.90;999.90;;;19.70;99.90;;;;;;5055257;28;20040;-73
2023/09/17 04:47:18;;;;;;;1999.90;999.90;;;19.70;99.90;;;;;;5035948;28;20036;-77
2023/09/17 04:49:43;;;;;;;1999.90;999.90;;;19.70;99.90;;;;;;5047215;28;20025;-77
2023/09/17 04:52:09;;;;;;;1999.90;999.90;;;19.70;99.90;;;;;;5055027;28;20433;-77
2023/09/17 04:54:37;;;;;;;1999.90;999.90;;;19.70;99.90;;;;;;5054845;28;20024;-77
2023/09/17 04:57:03;;;;;;;1999.90;999.90;;;19.80;99.90;;;;;;5054583;28;20035;-76
2023/09/17 04:59:29;;;;;;;1999.90;999.90;;;19.80;99.90;;;;;;5054756;28;20491;-73
2023/09/17 05:01:55;;;;;;;1999.90;999.90;;;19.80;99.90;;;;;;5054826;28;20063;-77
2023/09/17 05:04:20;;;;;;;1999.90;999.90;;;19.90;99.90;;;;;;5054484;28;20101;-77
2023/09/17 05:06:46;;;;;;;1999.90;999.90;;;19.80;99.90;;;;;;5054422;28;20480;-77
2023/09/17 05:09:12;;;;;;;1999.90;999.90;;;19.90;99.90;;;;;;5042068;28;20029;-77
2023/09/17 05:11:37;;;;;;;1999.90;999.90;;;19.80;99.90;;;;;;5049553;28;20091;-73
2023/09/17 05:14:03;;;;;;;1999.90;999.90;;;19.80;99.90;;;;;;5054627;28;20088;-77
2023/09/17 05:16:28;;;;;;;1999.90;999.90;;;19.90;99.90;;;;;;5052285;28;20569;-76
2023/09/17 05:18:54;;;;;;;1999.90;999.90;;;19.90;99.90;;;;;;5045283;28;20127;-77
2023/09/17 05:21:19;;;;;;;1999.90;999.90;;;19.80;99.90;;;;;;5034806;28;20455;-77
2023/09/17 05:23:45;;;;;;;1999.90;999.90;;;19.80;99.90;;;;;;5042035;28;20083;-72
2023/09/17 05:26:11;;;;;;;1999.90;999.90;;;19.90;99.90;;;;;;5038867;28;20056;-77
2023/09/17 05:28:37;;;;;;;1999.90;999.90;;;19.90;99.90;;;;;;5034301;28;20052;-77
2023/09/17 05:31:03;;;;;;;1999.90;999.90;;;19.90;99.90;;;;;;5040771;28;20033;-77
2023/09/17 05:33:29;;;;;;;1999.90;999.90;;;19.90;99.90;;;;;;5053734;28;20045;-77
2023/09/17 05:35:58;;;;;;;1999.90;999.90;;;19.90;99.90;;;;;;5053911;28;20031;-77
2023/09/17 05:38:25;;;;;;;1999.90;999.90;;;19.90;99.90;;;;;;5054054;28;20017;-77
2023/09/17 05:40:51;;;;;;;1999.90;999.90;;;20.00;99.90;;;;;;5053972;28;20520;-73
2023/09/17 05:43:16;;;;;;;1999.90;999.90;;;20.00;99.90;;;;;;5053986;28;20025;-77
2023/09/17 05:45:42;;;;;;;1999.90;999.90;;;20.00;99.90;;;;;;5054131;28;20112;-78
2023/09/17 05:48:08;;;;;;;1999.90;999.90;;;20.00;99.90;;;;;;5053824;28;20492;-73
2023/09/17 05:50:33;;;;;;;1999.90;999.90;;;20.00;99.90;;;;;;5051621;28;20142;-73
2023/09/17 05:52:59;;;;;;;1999.90;999.90;;;20.10;99.90;;;;;;5041508;28;20018;-74
2023/09/17 05:55:24;;;;;;;1999.90;999.90;;;20.10;99.90;;;;;;5035762;28;20370;-78
2023/09/17 05:57:50;;;;;;;1999.90;999.90;;;20.20;99.90;;;;;;5050059;28;20606;-77
2023/09/17 06:00:17;;;;;;;1999.90;999.90;;;20.20;99.90;;;;;;5053456;28;20064;-78
2023/09/17 06:02:43;;;;;;;1999.90;999.90;;;20.20;99.90;;;;;;5053528;28;20077;-78
2023/09/17 06:05:09;;;;;;;1999.90;999.90;;;20.30;99.90;;;;;;5051919;28;20415;-78
2023/09/17 06:07:34;;;;;;;1999.90;999.90;;;20.30;99.90;;;;;;5053590;28;20024;-78
2023/09/17 06:10:00;;;;;;;1999.90;999.90;;;20.30;99.90;;;;;;5042591;28;20071;-78
2023/09/17 06:12:27;;;;;;;1999.90;999.90;;;20.30;99.90;;;;;;5039073;28;20046;-78
2023/09/17 06:14:53;;;;;;;1999.90;999.90;;;20.30;99.90;;;;;;5033296;28;20036;-78
2023/09/17 06:17:18;;;;;;;1999.90;999.90;;;20.30;99.90;;;;;;5048176;28;20109;-73
2023/09/17 06:19:44;;;;;;;1999.90;999.90;;;20.40;99.90;;;;;;5053354;28;20060;-78
2023/09/17 06:22:11;;;;;;;1999.90;999.90;;;20.40;99.90;;;;;;5037487;28;20033;-73
2023/09/17 06:24:37;;;;;;;1999.90;999.90;;;20.50;99.90;;;;;;5044458;28;20029;-77
2023/09/17 06:27:03;;;;;;;1999.90;999.90;;;20.50;99.90;;;;;;5046744;28;20107;-78
2023/09/17 06:29:29;;;;;;;1999.90;999.90;;;20.60;99.90;;;;;;5053367;28;20013;-73
2023/09/17 06:31:55;;;;;;;1999.90;999.90;;;20.60;99.90;;;;;;5052959;28;20028;-73
2023/09/17 06:34:21;;;;;;;1999.90;999.90;;;20.60;99.90;;;;;;5053324;28;20017;-73
2023/09/17 06:36:47;;;;;;;1999.90;999.90;;;20.70;99.90;;;;;;5052987;28;20377;-77
2023/09/17 06:39:13;;;;;;;1999.90;999.90;;;20.70;99.90;;;;;;5053185;28;20062;-77
2023/09/17 06:41:39;;;;;;;1999.90;999.90;;;20.70;99.90;;;;;;5052907;28;20389;-73
2023/09/17 06:44:05;;;;;;;1999.90;999.90;;;20.70;99.90;;;;;;5053180;28;20032;-73
2023/09/17 06:46:31;;;;;;;1999.90;999.90;;;20.70;99.90;;;;;;5053047;28;20395;-78
2023/09/17 06:48:56;;;;;;;1999.90;999.90;;;20.60;99.90;;;;;;5052755;28;20443;-77
2023/09/17 06:51:22;;;;;;;1999.90;999.90;;;20.60;99.90;;;;;;5052416;28;20029;-77
2023/09/17 06:53:47;;;;;;;1999.90;999.90;;;20.70;99.90;;;;;;5052421;28;20480;-77
2023/09/17 06:56:14;;;;;;;1999.90;999.90;;;20.80;99.90;;;;;;5053116;28;20095;-73
2023/09/17 06:58:39;;;;;;;1999.90;999.90;;;20.70;99.90;;;;;;5052751;28;20024;-77
2023/09/17 07:01:07;;;;;;;1999.90;999.90;;;20.80;99.90;;;;;;5052626;28;20078;-78
2023/09/17 07:03:32;;;;;;;1999.90;999.90;;;20.80;99.90;;;;;;5052553;28;20455;-77
2023/09/17 07:05:58;;;;;;;1999.90;999.90;;;20.80;99.90;;;;;;5052599;28;20057;-77
2023/09/17 07:08:24;;;;;;;1999.90;999.90;;;20.90;99.90;;;;;;5047982;28;20499;-74
2023/09/17 07:10:50;;;;;;;1999.90;999.90;;;21.00;99.90;;;;;;5047183;28;20446;-77
2023/09/17 07:13:16;;;;;;;1999.90;999.90;;;21.00;99.90;;;;;;5051702;28;20028;-77
2023/09/17 07:15:43;;;;;;;1999.90;999.90;;;21.10;99.90;;;;;;5046000;28;20025;-77
2023/09/17 07:18:10;;;;;;;1999.90;999.90;;;21.10;99.90;;;;;;5043986;28;20026;-78
2023/09/17 07:20:36;;;;;;;1999.90;999.90;;;21.10;99.90;;;;;;5032616;28;20025;-73
2023/09/17 07:23:02;;;;;;;1999.90;999.90;;;21.20;99.90;;;;;;5035967;28;20036;-77
2023/09/17 07:25:28;;;;;;;1999.90;999.90;;;21.20;99.90;;;;;;5039829;28;20564;-78
2023/09/17 07:27:54;;;;;;;1999.90;999.90;;;21.20;99.90;;;;;;5032699;28;20112;-78
2023/09/17 07:30:19;;;;;;;1999.90;999.90;;;21.30;99.90;;;;;;5033450;28;20064;-73
2023/09/17 07:32:45;;;;;;;1999.90;999.90;;;21.30;99.90;;;;;;5052549;28;20101;-78
2023/09/17 07:35:11;;;;;;;1999.90;999.90;;;21.30;99.90;;;;;;5052441;28;20025;-78
2023/09/17 07:37:37;;;;;;;1999.90;999.90;;;21.20;99.90;;;;;;5053092;28;20455;-74
2023/09/17 07:40:04;;;;;;;1999.90;999.90;;;21.20;99.90;;;;;;5056268;28;20499;-78
2023/09/17 07:42:31;;;;;;;1999.90;999.90;;;21.20;99.90;;;;;;5056191;28;20502;-77
2023/09/17 07:44:56;;;;;;;1999.90;999.90;;;21.20;99.90;;;;;;5056225;28;20111;-78
2023/09/17 07:47:22;;;;;;;1999.90;999.90;;;21.20;99.90;;;;;;5056323;28;20096;-77
2023/09/17 07:49:48;;;;;;;1999.90;999.90;;;21.10;99.90;;;;;;5055830;28;20059;-74
2023/09/17 07:52:14;;;;;;;1999.90;999.90;;;21.10;99.90;;;;;;5053854;28;20053;-78
2023/09/17 07:54:41;;;;;;;1999.90;999.90;;;21.20;99.90;;;;;;5054570;28;20029;-78
2023/09/17 07:57:08;;;;;;;1999.90;999.90;;;21.30;99.90;;;;;;5051561;28;20469;-77
2023/09/17 07:59:33;;;;;;;1999.90;999.90;;;21.30;99.90;;;;;;5055681;28;20476;-78
2023/09/17 08:01:59;;;;;;;1999.90;999.90;;;21.30;99.90;;;;;;5056092;28;20056;-78
2023/09/17 08:04:25;;;;;;;1999.90;999.90;;;21.40;99.90;;;;;;5054501;28;20091;-74
2023/09/17 08:06:51;;;;;;;1999.90;999.90;;;24.00;99.90;;;;;;5047502;28;20507;-78
2023/09/17 08:09:17;;;;;;;1999.90;999.90;;;24.90;99.90;;;;;;5039930;28;20116;-75
2023/09/17 08:11:43;;;;;;;1999.90;999.90;;;24.90;99.90;;;;;;5055746;28;20148;-78
2023/09/17 08:14:10;;;;;;;1999.90;999.90;;;26.50;99.90;;;;;;5045937;28;20017;-78
2023/09/17 08:16:36;;;;;;;1999.90;999.90;;;26.20;99.90;;;;;;5035692;28;20040;-74
2023/09/17 08:19:01;;;;;;;1999.90;999.90;;;26.00;99.90;;;;;;5053313;28;20032;-75
2023/09/17 08:21:28;;;;;;;1999.90;999.90;;;28.00;99.90;;;;;;5055777;28;20033;-78
2023/09/17 08:23:53;;;;;;;1999.90;999.90;;;27.20;99.90;;;;;;5046102;28;20033;-74
2023/09/17 08:26:21;;;;;;;1999.90;999.90;;;26.10;99.90;;;;;;5051381;28;20029;-75
2023/09/17 08:28:48;;;;;;;1999.90;999.90;;;24.90;99.90;;;;;;5047042;28;20021;-74
2023/09/17 08:31:14;;;;;;;1999.90;999.90;;;25.50;99.90;;;;;;5055128;28;20031;-79
2023/09/17 08:33:40;;;;;;;1999.90;999.90;;;27.50;99.90;;;;;;5055368;28;20043;-79
2023/09/17 08:36:06;;;;;;;1999.90;999.90;;;28.90;99.90;;;;;;5053992;28;20029;-79
2023/09/17 08:38:32;;;;;;;1999.90;999.90;;;29.30;99.90;;;;;;5055281;28;20021;-74
2023/09/17 08:40:59;;;;;;;1999.90;999.90;;;29.10;99.90;;;;;;5055043;28;20052;-74
2023/09/17 08:43:25;;;;;;;1999.90;999.90;;;29.50;99.90;;;;;;5055088;28;20140;-80
2023/09/17 08:45:51;;;;;;;1999.90;999.90;;;29.60;99.90;;;;;;5055439;28;20452;-79
2023/09/17 08:48:17;;;;;;;1999.90;999.90;;;29.00;99.90;;;;;;5054760;28;20024;-76
2023/09/17 08:50:49;;;;;;;1999.90;999.90;;;29.60;99.90;;;;;;5054856;28;20029;-79
2023/09/17 08:53:19;;;;;;;1999.90;999.90;;;29.20;99.90;;;;;;5053645;28;20024;-75
2023/09/17 08:55:47;;;;;;;1999.90;999.90;;;28.80;99.90;;;;;;5054898;28;20021;-75
2023/09/17 08:58:15;;;;;;;1999.90;999.90;;;27.90;99.90;;;;;;5054909;28;20021;-76
2023/09/17 09:00:49;;;;;;;1999.90;999.90;;;27.20;99.90;;;;;;5054687;28;20024;-78
2023/09/17 09:03:17;;;;;;;1999.90;999.90;;;26.30;99.90;;;;;;5054864;28;20029;-77
2023/09/17 09:05:46;;;;;;;1999.90;999.90;;;26.00;99.90;;;;;;5054605;28;20045;-78
2023/09/17 09:08:13;;;;;;;1999.90;999.90;;;25.90;99.90;;;;;;5052641;28;20156;-75
2023/09/17 09:10:39;;;;;;;1999.90;999.90;;;26.00;99.90;;;;;;5044453;28;20040;-78
2023/09/17 09:13:05;;;;;;;1999.90;999.90;;;26.30;99.90;;;;;;5054545;28;20112;-79
2023/09/17 09:15:31;;;;;;;1999.90;999.90;;;26.20;99.90;;;;;;5054511;28;20118;-75
2023/09/17 09:17:56;;;;;;;1999.90;999.90;;;26.00;99.90;;;;;;5054486;28;20025;-75
2023/09/17 09:20:22;;;;;;;1999.90;999.90;;;25.80;99.90;;;;;;5054415;28;20056;-75
2023/09/17 09:22:48;;;;;;;1999.90;999.90;;;25.40;99.90;;;;;;5050729;28;20043;-77
2023/09/17 09:25:15;;;;;;;1999.90;999.90;;;25.50;99.90;;;;;;5043183;28;20053;-77
2023/09/17 09:27:41;;;;;;;1999.90;999.90;;;25.30;99.90;;;;;;5034622;28;20056;-77
2023/09/17 09:30:09;;;;;;;1999.90;999.90;;;25.70;99.90;;;;;;5034133;28;20072;-75
2023/09/17 09:32:36;;;;;;;1999.90;999.90;;;25.80;99.90;;;;;;5053633;28;20095;-75
2023/09/17 09:35:02;;;;;;;1999.90;999.90;;;25.60;99.90;;;;;;5047141;28;20022;-77
2023/09/17 09:37:28;;;;;;;1999.90;999.90;;;25.70;99.90;;;;;;5049310;28;20025;-79
2023/09/17 09:39:54;;;;;;;1999.90;999.90;;;26.00;99.90;;;;;;5034000;28;20037;-78
2023/09/17 09:42:22;;;;;;;1999.90;999.90;;;26.20;99.90;;;;;;5034264;28;20025;-77
2023/09/17 09:44:50;;;;;;;1999.90;999.90;;;26.10;99.90;;;;;;5033996;28;20064;-75
2023/09/17 09:47:17;;;;;;;1999.90;999.90;;;26.30;99.90;;;;;;5033994;28;20021;-75
2023/09/17 09:49:44;;;;;;;1999.90;999.90;;;26.30;99.90;;;;;;5033665;28;20025;-74
2023/09/17 09:52:14;;;;;;;1999.90;999.90;;;26.40;99.90;;;;;;5034035;28;20025;-79
2023/09/17 09:54:44;;;;;;;1999.90;999.90;;;26.40;99.90;;;;;;5033754;28;20021;-79
2023/09/17 09:57:15;;;;;;;1999.90;999.90;;;26.40;99.90;;;;;;5034164;28;20025;-78
2023/09/17 09:59:46;;;;;;;1999.90;999.90;;;26.70;99.90;;;;;;5038489;28;20028;-74
2023/09/17 10:02:15;;;;;;;1999.90;999.90;;;26.60;99.90;;;;;;5052549;28;20507;-74
2023/09/17 10:04:42;;;;;;;1999.90;999.90;;;26.50;99.90;;;;;;5051925;28;20060;-78
2023/09/17 10:07:08;;;;;;;1999.90;999.90;;;26.70;99.90;;;;;;5053528;28;20025;-79
2023/09/17 10:09:34;;;;;;;1999.90;999.90;;;26.90;99.90;;;;;;5045796;28;20628;-74
2023/09/17 10:12:00;;;;;;;1999.90;999.90;;;26.80;99.90;;;;;;5047884;28;20048;-78
2023/09/17 10:14:26;;;;;;;1999.90;999.90;;;27.10;99.90;;;;;;5053667;28;20114;-79
2023/09/17 10:16:56;;;;;;;1999.90;999.90;;;27.50;99.90;;;;;;5044580;28;20024;-78
2023/09/17 10:19:25;;;;;;;1999.90;999.90;;;27.60;99.90;;;;;;5033263;28;20041;-78
2023/09/17 10:21:52;;;;;;;1999.90;999.90;;;27.30;99.90;;;;;;5043376;28;20021;-78
2023/09/17 10:24:19;;;;;;;1999.90;999.90;;;27.30;99.90;;;;;;5045277;28;20035;-75
2023/09/17 10:26:46;;;;;;;1999.90;999.90;;;27.20;99.90;;;;;;5034954;28;20551;-78
2023/09/17 10:29:13;;;;;;;1999.90;999.90;;;27.20;99.90;;;;;;5052932;28;20035;-74
2023/09/17 10:31:40;;;;;;;1999.90;999.90;;;27.00;99.90;;;;;;5052932;28;20358;-78
2023/09/17 10:34:08;;;;;;;1999.90;999.90;;;27.00;99.90;;;;;;5053366;28;20391;-79
2023/09/17 10:36:36;;;;;;;1999.90;999.90;;;26.80;99.90;;;;;;5052966;28;20029;-74
2023/09/17 10:39:03;;;;;;;1999.90;999.90;;;26.60;99.90;;;;;;5053292;28;20488;-74
2023/09/17 10:41:32;;;;;;;1999.90;999.90;;;26.60;99.90;;;;;;5052941;28;20021;-79
2023/09/17 10:43:59;;;;;;;1999.90;999.90;;;26.70;99.90;;;;;;5052849;28;20033;-74
2023/09/17 10:46:27;;;;;;;1999.90;999.90;;;26.60;99.90;;;;;;5052999;28;20143;-79
2023/09/17 10:48:54;;;;;;;1999.90;999.90;;;26.50;99.90;;;;;;5052374;28;20036;-74
2023/09/17 10:51:20;;;;;;;1999.90;999.90;;;26.90;99.90;;;;;;5052743;28;20103;-79
2023/09/17 10:53:45;;;;;;;1999.90;999.90;;;26.70;99.90;;;;;;5053163;28;20057;-79
2023/09/17 10:56:13;;;;;;;1999.90;999.90;;;26.60;99.90;;;;;;5052748;28;20029;-79
2023/09/17 10:58:48;;;;;;;1999.90;999.90;;;26.70;99.90;;;;;;5052705;28;20021;-78
2023/09/17 11:01:17;;;;;;;1999.90;999.90;;;27.00;99.90;;;;;;5052658;28;20502;-78
2023/09/17 11:03:55;;;;;;;1999.90;999.90;;;27.10;99.90;;;;;;5052531;28;20099;-78
2023/09/17 11:06:25;;;;;;;1999.90;999.90;;;27.10;99.90;;;;;;5052519;28;20036;-78
2023/09/17 11:08:54;;;;;;;1999.90;999.90;;;26.80;99.90;;;;;;5045002;28;20030;-74
2023/09/17 11:11:22;;;;;;;1999.90;999.90;;;26.90;99.90;;;;;;5047745;28;20427;-77
2023/09/17 11:13:48;;;;;;;1999.90;999.90;;;27.00;99.90;;;;;;5059357;28;20032;-79
2023/09/17 11:16:15;;;;;;;1999.90;999.90;;;27.10;99.90;;;;;;5059339;28;20017;-74
2023/09/17 11:18:44;;;;;;;1999.90;999.90;;;27.10;99.90;;;;;;5059238;28;20025;-78
2023/09/17 11:21:12;;;;;;;1999.90;999.90;;;26.90;99.90;;;;;;5049639;28;20546;-79
2023/09/17 11:23:38;;;;;;;1999.90;999.90;;;26.90;99.90;;;;;;5044854;28;20034;-74
2023/09/17 11:26:05;;;;;;;1999.90;999.90;;;27.00;99.90;;;;;;5045636;28;20036;-79
2023/09/17 11:28:36;;;;;;;1999.90;999.90;;;27.10;99.90;;;;;;5039260;28;20021;-75
2023/09/17 11:31:03;;;;;;;1999.90;999.90;;;27.10;99.90;;;;;;5046012;28;20017;-74
2023/09/17 11:33:29;;;;;;;1999.90;999.90;;;27.30;99.90;;;;;;5059047;28;20025;-79
2023/09/17 11:35:57;;;;;;;1999.90;999.90;;;27.20;99.90;;;;;;5058997;28;20021;-79
2023/09/17 11:38:27;;;;;;;1999.90;999.90;;;27.30;99.90;;;;;;5046799;28;20515;-78
2023/09/17 11:41:09;;;;;;;1999.90;999.90;;;27.50;99.90;;;;;;5049226;28;20082;-75
2023/09/17 11:43:39;;;;;;;;;;;27.50;99.90;;;;;;5059558;28;20086;-74
2023/09/17 11:46:10;;;;;;;1999.90;999.90;;;27.50;99.90;;;;;;5058876;28;20268;-78
2023/09/17 11:48:37;;;;;;;1999.90;999.90;;;27.70;99.90;;;;;;5058693;28;20029;-75
2023/09/17 11:51:23;;;;;;;1999.90;999.90;;;27.60;99.90;;;;;;5059113;28;20520;-79
2023/09/17 11:54:11;;;;;;;1999.90;999.90;;;27.70;99.90;;;;;;5059470;28;20045;-74
2023/09/17 11:56:47;;;;;;;1999.90;999.90;;;27.80;99.90;;;;;;5058870;28;20092;-74